Terminal Aerodrome Forecast
Issued by NWS

Home | Current Version | Previous Version | Text Only | Print | Product List | Glossary On
Versions: 1 2 3 4 5 6 7 8 9 10 11 12 13 14 15 16 17 18 19 20 21 22 23 24 25 26 27 28 29 30 31 32 33 34 35 36
000
FTUS43 KLOT 011900 AAA
TAFDPA
TAF AMD
KDPA 011947Z 0120/0218 13011KT P6SM SCT250
     FM020000 14008KT P6SM SCT150 BKN250
     FM020500 16007KT P6SM VCSH SCT050 BKN120
     FM020800 16006KT 6SM -SHRA BKN050 OVC120
     FM021400 18009KT P6SM SCT015 BKN030 OVC120=

USA.gov is the U.S. government's official web portal to all federal, state and local government web resources and services.